createdAt,value
2022-08-08T00:03:31.569Z,1024.70175
2022-08-08T00:08:34.546Z,988.0678
2022-08-08T00:14:15.000Z,970.66667
2022-08-08T00:19:19.332Z,970.66667
2022-08-08T00:24:24.160Z,937.54839
2022-08-08T00:29:46.019Z,970.66667
2022-08-08T00:34:48.514Z,921.77778
2022-08-08T00:41:07.631Z,921.77778
2022-08-08T00:46:16.496Z,799.55556
2022-08-08T00:51:18.967Z,714
2022-08-08T00:56:21.089Z,733.74359
2022-08-08T01:01:37.415Z,704.49383
2022-08-08T01:06:40.333Z,704.49383
2022-08-08T01:11:41.977Z,733.74359
2022-08-08T01:16:44.376Z,744
2022-08-08T01:22:10.396Z,787.83562
2022-08-08T01:27:16.119Z,891.69231
2022-08-08T01:32:23.087Z,921.77778
2022-08-08T01:37:56.291Z,988.0678
2022-08-08T01:42:59.746Z,937.54839
2022-08-08T01:48:16.469Z,937.54839
2022-08-08T01:55:16.669Z,921.77778
2022-08-08T02:00:22.097Z,970.66667
2022-08-08T02:05:24.750Z,970.66667
2022-08-08T02:10:44.717Z,970.66667
2022-08-08T02:15:47.002Z,970.66667
2022-08-08T02:21:02.754Z,953.83607
2022-08-08T02:26:06.894Z,953.83607
2022-08-08T02:31:43.909Z,953.83607
2022-08-08T02:37:02.129Z,953.83607
2022-08-08T02:42:07.843Z,970.66667
2022-08-08T02:47:12.321Z,970.66667
2022-08-08T02:52:35.250Z,988.0678
2022-08-08T02:57:44.902Z,937.54839
2022-08-08T03:02:50.592Z,970.66667
2022-08-08T03:07:58.257Z,906.5
2022-08-08T03:13:01.332Z,937.54839
2022-08-08T03:18:06.417Z,891.69231
2022-08-08T03:23:08.892Z,891.69231
2022-08-08T03:28:18.994Z,849.88235
2022-08-08T03:33:56.745Z,877.33333
2022-08-08T03:39:15.179Z,953.83607
2022-08-08T03:44:17.624Z,953.83607
2022-08-08T03:49:58.196Z,953.83607
2022-08-08T03:55:09.966Z,863.40299
2022-08-08T04:00:18.043Z,863.40299
2022-08-08T04:05:27.363Z,863.40299
2022-08-08T04:10:32.336Z,863.40299
2022-08-08T04:15:38.860Z,863.40299
2022-08-08T04:20:41.019Z,754.52632
2022-08-08T04:25:42.756Z,787.83562
2022-08-08T04:30:44.993Z,744
2022-08-08T04:35:50.934Z,744
2022-08-08T04:40:54.700Z,530.66667
2022-08-08T04:45:56.364Z,723.74684
2022-08-08T04:50:58.175Z,765.33333
2022-08-08T04:56:00.060Z,723.74684
2022-08-08T05:01:09.090Z,677.33333
2022-08-08T05:06:18.459Z,695.21951
2022-08-08T05:11:29.606Z,704.49383
2022-08-08T05:16:54.787Z,744
2022-08-08T05:22:02.399Z,811.60563
2022-08-08T05:27:04.121Z,811.60563
2022-08-08T05:32:06.572Z,849.88235
2022-08-08T05:37:18.682Z,811.60563
2022-08-08T05:42:25.512Z,836.75362
2022-08-08T05:47:41.695Z,811.60563
2022-08-08T05:53:53.963Z,836.75362
2022-08-08T06:00:00.822Z,799.55556
2022-08-08T06:05:34.955Z,836.75362
2022-08-08T06:10:39.326Z,877.33333
2022-08-08T06:15:51.051Z,863.40299
2022-08-08T06:20:56.493Z,836.75362
2022-08-08T06:26:44.059Z,891.69231
2022-08-08T06:31:52.607Z,877.33333
2022-08-08T06:37:25.178Z,891.69231
2022-08-08T06:42:28.340Z,921.77778
2022-08-08T06:47:33.761Z,891.69231
2022-08-08T06:52:53.675Z,891.69231
2022-08-08T06:58:00.702Z,863.40299
2022-08-08T07:03:05.466Z,863.40299
2022-08-08T07:08:07.208Z,891.69231
2022-08-08T07:13:10.663Z,877.33333
2022-08-08T07:18:35.113Z,849.88235
2022-08-08T07:24:02.000Z,906.5
2022-08-08T07:29:08.227Z,891.69231
2022-08-08T07:34:26.651Z,921.77778
2022-08-08T07:39:29.561Z,921.77778
2022-08-08T07:44:43.535Z,891.69231
2022-08-08T07:49:46.277Z,906.5
2022-08-08T07:54:51.056Z,921.77778
2022-08-08T07:59:52.670Z,906.5
2022-08-08T08:04:55.262Z,921.77778
2022-08-08T08:09:58.243Z,891.69231
2022-08-08T08:15:04.216Z,921.77778
2022-08-08T08:20:06.774Z,877.33333
2022-08-08T08:25:12.055Z,891.69231
2022-08-08T08:30:19.271Z,906.5
2022-08-08T08:35:29.900Z,953.83607
2022-08-08T08:41:23.938Z,921.77778
2022-08-08T08:46:26.707Z,937.54839
2022-08-08T08:51:30.063Z,937.54839
2022-08-08T08:56:31.879Z,970.66667
2022-08-08T09:01:33.655Z,937.54839
2022-08-08T09:06:35.478Z,988.0678
2022-08-08T09:11:47.574Z,988.0678
2022-08-08T09:17:11.582Z,988.0678
2022-08-08T09:22:26.152Z,1084.74074
2022-08-08T09:27:56.166Z,1128.61538
2022-08-08T09:33:54.323Z,1106.26415
2022-08-08T09:39:32.784Z,1176
2022-08-08T09:44:34.724Z,1344
2022-08-08T09:49:42.401Z,1254.6383
2022-08-08T09:54:51.543Z,1283.13043
2022-08-08T10:00:28.760Z,1254.6383
2022-08-08T10:05:36.344Z,1201.14286
2022-08-08T10:10:49.803Z,1176
2022-08-08T10:16:00.451Z,1201.14286
2022-08-08T10:21:08.459Z,1227.33333
2022-08-08T10:26:30.796Z,1254.6383
2022-08-08T10:31:54.959Z,1254.6383
2022-08-08T10:36:59.590Z,1151.84314
2022-08-08T10:42:16.251Z,1283.13043
2022-08-08T10:47:21.306Z,1227.33333
2022-08-08T10:52:23.642Z,1151.84314
2022-08-08T10:57:45.221Z,1312.88889
2022-08-08T11:02:51.643Z,1312.88889
2022-08-08T11:08:30.924Z,1283.13043
2022-08-08T11:13:41.114Z,1106.26415
2022-08-08T11:19:01.854Z,1312.88889
2022-08-08T11:24:05.428Z,1344
2022-08-08T11:29:07.259Z,1254.6383
2022-08-08T11:34:23.336Z,1254.6383
2022-08-08T11:39:37.191Z,1254.6383
2022-08-08T11:44:39.167Z,1283.13043
2022-08-08T11:49:42.774Z,1227.33333
2022-08-08T11:54:46.456Z,1128.61538
2022-08-08T12:00:01.868Z,1106.26415
2022-08-08T12:05:07.102Z,1064
2022-08-08T12:10:09.131Z,1044
2022-08-08T12:15:10.946Z,1064
2022-08-08T12:20:15.003Z,988.0678
2022-08-08T12:25:17.003Z,1044
2022-08-08T12:30:21.689Z,1024.70175
2022-08-08T12:35:26.647Z,1006.06897
2022-08-08T12:40:29.863Z,988.0678
2022-08-08T12:45:58.483Z,1044
2022-08-08T12:51:05.084Z,1006.06897
2022-08-08T12:56:19.516Z,988.0678
2022-08-08T13:01:36.560Z,1024.70175
2022-08-08T13:06:38.837Z,1024.70175
2022-08-08T13:12:34.138Z,988.0678
2022-08-08T13:18:09.182Z,1084.74074
2022-08-08T13:23:35.952Z,1024.70175
2022-08-08T13:28:42.053Z,1024.70175
2022-08-08T13:33:44.099Z,1006.06897
2022-08-08T13:38:45.766Z,937.54839
2022-08-08T13:43:49.788Z,988.0678
2022-08-08T13:49:12.241Z,1006.06897
2022-08-08T13:55:36.680Z,988.0678
2022-08-08T14:00:45.254Z,1044
2022-08-08T14:06:00.920Z,970.66667
2022-08-08T14:11:03.228Z,988.0678
2022-08-08T14:16:04.819Z,1024.70175
2022-08-08T14:21:20.962Z,1064
2022-08-08T14:26:25.126Z,1044
2022-08-08T14:32:05.877Z,1024.70175
2022-08-08T14:37:13.535Z,970.66667
2022-08-08T14:42:16.955Z,988.0678
2022-08-08T14:47:21.727Z,988.0678
2022-08-08T14:52:23.812Z,953.83607
2022-08-08T14:58:03.372Z,970.66667
2022-08-08T15:03:15.616Z,1006.06897
2022-08-08T15:08:22.055Z,953.83607
2022-08-08T15:13:39.709Z,877.33333
2022-08-08T15:18:44.092Z,953.83607
2022-08-08T15:23:52.762Z,953.83607
2022-08-08T15:28:56.146Z,1006.06897
2022-08-08T15:33:59.018Z,937.54839
2022-08-08T15:39:01.561Z,970.66667
2022-08-08T15:44:03.696Z,937.54839
2022-08-08T15:49:05.539Z,877.33333
2022-08-08T15:54:07.504Z,787.83562
2022-08-08T15:59:20.921Z,799.55556
2022-08-08T16:05:14.082Z,787.83562
2022-08-08T16:13:15.665Z,799.55556
2022-08-08T16:18:32.044Z,811.60563
2022-08-08T16:23:34.972Z,776.43243
2022-08-08T16:28:36.823Z,811.60563
2022-08-08T16:33:40.162Z,542.05825
2022-08-08T16:38:47.746Z,733.74359
2022-08-08T16:43:56.090Z,787.83562
2022-08-08T16:48:57.998Z,723.74684
2022-08-08T16:55:24.088Z,744
2022-08-08T17:00:58.143Z,714
2022-08-08T17:06:01.106Z,704.49383
2022-08-08T17:11:11.120Z,733.74359
2022-08-08T17:16:15.093Z,744
2022-08-08T17:21:17.404Z,787.83562
2022-08-08T17:26:29.386Z,787.83562
2022-08-08T17:31:45.891Z,754.52632
2022-08-08T17:37:01.164Z,723.74684
2022-08-08T17:42:05.533Z,799.55556
2022-08-08T17:47:09.482Z,776.43243
2022-08-08T17:52:11.622Z,787.83562
2022-08-08T17:57:14.508Z,733.74359
2022-08-08T18:02:21.202Z,765.33333
2022-08-08T18:08:01.789Z,744
2022-08-08T18:13:07.497Z,733.74359
2022-08-08T18:18:28.632Z,744
2022-08-08T18:23:33.748Z,704.49383
2022-08-08T18:28:53.969Z,714
2022-08-08T18:34:25.063Z,787.83562
2022-08-08T18:39:29.332Z,754.52632
2022-08-08T18:44:33.042Z,787.83562
2022-08-08T18:49:57.998Z,776.43243
2022-08-08T18:55:10.537Z,695.21951
2022-08-08T19:00:15.919Z,660.27907
2022-08-08T19:05:21.323Z,754.52632
2022-08-08T19:10:22.986Z,811.60563
2022-08-08T19:15:34.045Z,824
2022-08-08T19:20:36.424Z,863.40299
2022-08-08T19:26:01.677Z,824
2022-08-08T19:31:22.883Z,836.75362
2022-08-08T19:36:33.737Z,863.40299
2022-08-08T19:41:35.489Z,877.33333
2022-08-08T19:46:37.661Z,686.16867
2022-08-08T19:51:41.589Z,723.74684
2022-08-08T19:56:48.811Z,877.33333
2022-08-08T20:02:03.509Z,937.54839
2022-08-08T20:08:28.648Z,891.69231
2022-08-08T20:14:13.173Z,613.56522
2022-08-08T20:19:42.379Z,644
2022-08-08T20:24:45.380Z,765.33333
2022-08-08T20:29:55.271Z,1024.70175
2022-08-08T20:35:01.286Z,988.0678
2022-08-08T20:40:03.638Z,1006.06897
2022-08-08T20:45:05.284Z,937.54839
2022-08-08T20:50:10.241Z,787.83562
2022-08-08T20:55:16.268Z,530.66667
2022-08-08T21:00:27.567Z,461.64706
2022-08-08T21:05:31.615Z,429.03937
2022-08-08T21:10:33.789Z,414.22901
2022-08-08T21:16:06.030Z,400.2963
2022-08-08T21:21:38.550Z,429.03937
2022-08-08T21:26:41.020Z,636.13483
2022-08-08T21:31:57.860Z,811.60563
2022-08-08T21:37:05.269Z,765.33333
2022-08-08T21:42:13.179Z,765.33333
2022-08-08T21:48:04.478Z,765.33333
2022-08-08T21:54:31.915Z,733.74359
2022-08-08T22:00:02.223Z,677.33333
2022-08-08T22:05:05.133Z,824
2022-08-08T22:10:09.354Z,937.54839
2022-08-08T22:15:11.209Z,937.54839
2022-08-08T22:20:18.641Z,937.54839
2022-08-08T22:25:26.164Z,723.74684
2022-08-08T22:30:29.372Z,686.16867
2022-08-08T22:36:05.601Z,636.13483
2022-08-08T22:41:16.428Z,606.36559
2022-08-08T22:46:23.524Z,509.13761
2022-08-08T22:51:28.975Z,494
2022-08-08T22:56:31.020Z,494
2022-08-08T23:02:03.574Z,470.49573
2022-08-08T23:07:05.959Z,407.15789
2022-08-08T23:12:28.860Z,396.94118
2022-08-08T23:17:54.174Z,547.92157
2022-08-08T23:22:59.617Z,407.15789
2022-08-08T23:28:01.540Z,461.64706
2022-08-08T23:33:03.976Z,744
2022-08-08T23:38:06.582Z,744
2022-08-08T23:43:08.175Z,776.43243
2022-08-08T23:49:00.076Z,811.60563
2022-08-08T23:54:41.377Z,811.60563
